Time;durP1;ratioP1;P1;durP2;ratioP2;P2;SDS_P1;SDS_P2;PMS_P1;PMS_P2;Temp;Humidity;BMP_temperature;BMP_pressure;BME280_temperature;BME280_humidity;BME280_pressure;Samples;Min_cycle;Max_cycle;Signal;HPM_P1;HPM_P2
2023/11/05 00:02:18;;;;;;;1.40;1.30;;;8.60;99.90;;;;;;5095237;28;20594;-61
2023/11/05 00:04:45;;;;;;;2.20;1.60;;;8.60;99.90;;;;;;5095257;28;20208;-61
2023/11/05 00:07:11;;;;;;;1.92;1.50;;;8.50;99.90;;;;;;5094650;28;20203;-61
2023/11/05 00:09:39;;;;;;;3.08;1.70;;;8.50;99.90;;;;;;5094257;28;20200;-63
2023/11/05 00:12:07;;;;;;;3.08;2.20;;;8.40;99.90;;;;;;5094134;28;20228;-61
2023/11/05 00:14:33;;;;;;;2.40;2.10;;;8.40;99.90;;;;;;5094091;28;20197;-62
2023/11/05 00:17:00;;;;;;;3.20;1.70;;;8.40;99.90;;;;;;5094233;28;20265;-61
2023/11/05 00:19:27;;;;;;;2.55;1.65;;;8.40;99.90;;;;;;5094198;28;20200;-63
2023/11/05 00:21:54;;;;;;;3.72;1.77;;;8.30;99.90;;;;;;5094204;28;20220;-61
2023/11/05 00:24:21;;;;;;;1.50;1.40;;;8.30;99.90;;;;;;5093958;28;20203;-62
2023/11/05 00:26:49;;;;;;;1.73;1.50;;;8.30;99.90;;;;;;5093855;28;20573;-62
2023/11/05 00:29:15;;;;;;;2.15;1.67;;;8.40;99.90;;;;;;5099216;28;20204;-62
2023/11/05 00:31:42;;;;;;;1.88;1.70;;;8.40;99.90;;;;;;5098686;28;20216;-62
2023/11/05 00:34:09;;;;;;;2.05;1.60;;;8.40;99.90;;;;;;5098314;28;20200;-62
2023/11/05 00:36:36;;;;;;;1.88;1.65;;;8.40;99.90;;;;;;5097554;28;20196;-61
2023/11/05 00:39:03;;;;;;;1.95;1.52;;;8.50;99.90;;;;;;5097894;28;20199;-61
2023/11/05 00:41:30;;;;;;;2.75;1.35;;;8.50;99.90;;;;;;5097811;28;20208;-61
2023/11/05 00:43:58;;;;;;;2.00;1.80;;;8.50;99.90;;;;;;5106951;28;20283;-61
2023/11/05 00:46:24;;;;;;;1.50;1.40;;;8.50;99.90;;;;;;5105271;28;20204;-61
2023/11/05 00:48:52;;;;;;;2.20;1.70;;;8.50;99.90;;;;;;5099664;28;20203;-63
2023/11/05 00:51:19;;;;;;;1.80;1.70;;;8.50;99.90;;;;;;5098356;28;20204;-62
2023/11/05 00:53:46;;;;;;;3.20;2.00;;;8.50;99.90;;;;;;5097928;28;20251;-61
2023/11/05 00:56:13;;;;;;;1.88;1.67;;;8.50;99.90;;;;;;5098079;28;20283;-62
2023/11/05 00:58:40;;;;;;;1.90;1.55;;;8.50;99.90;;;;;;5097652;28;20232;-62
2023/11/05 01:01:08;;;;;;;1.75;1.60;;;8.60;99.90;;;;;;5097375;28;20201;-61
2023/11/05 01:03:35;;;;;;;2.90;1.70;;;8.60;99.90;;;;;;5097675;28;20220;-60
2023/11/05 01:06:01;;;;;;;2.03;1.55;;;8.60;99.90;;;;;;5097123;28;20672;-61
2023/11/05 01:08:28;;;;;;;3.53;2.10;;;8.60;99.90;;;;;;5097750;28;20200;-62
2023/11/05 01:10:55;;;;;;;2.33;2.13;;;8.70;99.90;;;;;;5098039;28;20212;-62
2023/11/05 01:13:22;;;;;;;1.80;1.60;;;8.70;99.90;;;;;;5102853;28;20219;-62
2023/11/05 01:15:49;;;;;;;2.45;1.90;;;8.70;99.90;;;;;;5103991;28;20207;-61
2023/11/05 01:18:17;;;;;;;2.90;2.30;;;8.80;99.90;;;;;;5103664;28;20300;-61
2023/11/05 01:20:44;;;;;;;2.30;2.10;;;8.80;99.90;;;;;;5102169;28;20232;-62
2023/11/05 01:23:11;;;;;;;2.20;1.90;;;8.90;99.90;;;;;;5103356;28;20238;-61
2023/11/05 01:25:37;;;;;;;2.67;1.90;;;8.90;99.90;;;;;;5105254;28;20680;-61
2023/11/05 01:28:04;;;;;;;2.58;1.95;;;9.00;99.90;;;;;;5103161;28;20197;-61
2023/11/05 01:30:31;;;;;;;2.22;2.00;;;9.00;99.90;;;;;;5099883;28;20200;-62
2023/11/05 01:32:58;;;;;;;2.15;1.88;;;9.00;99.90;;;;;;5097348;28;20220;-62
2023/11/05 01:35:26;;;;;;;3.00;2.10;;;9.00;99.90;;;;;;5098064;28;20201;-61
2023/11/05 01:37:53;;;;;;;2.60;2.40;;;9.00;99.90;;;;;;5097145;28;20216;-61
2023/11/05 01:40:19;;;;;;;1.80;1.70;;;9.00;99.90;;;;;;5096906;28;20205;-62
2023/11/05 01:42:50;;;;;;;2.03;1.83;;;9.00;99.90;;;;;;5097792;28;20230;-62
2023/11/05 01:45:17;;;;;;;3.08;2.00;;;9.00;99.90;;;;;;5097795;28;20188;-61
2023/11/05 01:47:44;;;;;;;1.52;1.23;;;9.00;99.90;;;;;;5096972;28;20199;-62
2023/11/05 01:50:12;;;;;;;2.33;1.65;;;9.10;99.90;;;;;;5096806;28;20200;-60
2023/11/05 01:52:40;;;;;;;2.20;1.80;;;9.10;99.90;;;;;;5098075;28;20295;-61
2023/11/05 01:55:08;;;;;;;3.17;1.70;;;9.10;99.90;;;;;;5097501;28;20206;-60
2023/11/05 01:57:35;;;;;;;2.75;1.75;;;9.10;99.90;;;;;;5097323;28;20224;-61
2023/11/05 02:00:02;;;;;;;4.15;1.65;;;9.10;99.90;;;;;;5097585;28;20200;-61
2023/11/05 02:02:30;;;;;;;2.17;1.48;;;9.20;99.90;;;;;;5098345;28;20228;-62
2023/11/05 02:04:58;;;;;;;1.70;1.60;;;9.20;99.90;;;;;;5100658;28;20204;-61
2023/11/05 02:07:24;;;;;;;3.40;1.73;;;9.20;99.90;;;;;;5101619;28;20196;-61
2023/11/05 02:09:53;;;;;;;5.27;1.80;;;9.20;99.90;;;;;;5106373;28;20201;-61
2023/11/05 02:12:20;;;;;;;2.03;1.50;;;9.20;99.90;;;;;;5112597;28;20480;-62
2023/11/05 02:14:51;;;;;;;2.25;2.05;;;9.30;99.90;;;;;;5112808;28;20442;-62
2023/11/05 02:17:18;;;;;;;2.60;1.70;;;9.30;99.90;;;;;;5101247;28;20207;-62
2023/11/05 02:19:45;;;;;;;4.47;2.00;;;9.30;99.90;;;;;;5098042;28;20218;-61
2023/11/05 02:22:14;;;;;;;2.30;1.60;;;9.30;99.90;;;;;;5098301;28;20827;-62
2023/11/05 02:24:44;;;;;;;1.93;1.77;;;9.30;99.90;;;;;;5098332;28;20446;-61
2023/11/05 02:27:11;;;;;;;6.63;1.90;;;9.30;99.90;;;;;;5097539;28;20439;-60
2023/11/05 02:29:38;;;;;;;1.67;1.58;;;9.30;99.90;;;;;;5098528;28;20454;-61
2023/11/05 02:32:06;;;;;;;2.97;1.63;;;9.30;99.90;;;;;;5098447;28;20228;-60
2023/11/05 02:34:33;;;;;;;1.95;1.73;;;9.30;99.90;;;;;;5098594;28;20201;-60
2023/11/05 02:37:00;;;;;;;1.92;1.67;;;9.40;99.90;;;;;;5097008;28;20196;-61
2023/11/05 02:39:27;;;;;;;1.85;1.45;;;9.30;99.90;;;;;;5098844;28;20220;-61
2023/11/05 02:41:55;;;;;;;4.05;2.78;;;9.30;99.90;;;;;;5097900;28;20216;-61
2023/11/05 02:44:22;;;;;;;2.38;1.52;;;9.30;99.90;;;;;;5102568;28;20301;-60
2023/11/05 02:46:49;;;;;;;1.92;1.17;;;9.30;99.90;;;;;;5101777;28;20207;-62
2023/11/05 02:49:16;;;;;;;1.63;1.08;;;9.20;99.90;;;;;;5098235;28;20207;-61
2023/11/05 02:51:43;;;;;;;5.55;1.25;;;9.20;99.90;;;;;;5102435;28;20224;-61
2023/11/05 02:54:10;;;;;;;2.78;1.30;;;9.20;99.90;;;;;;5099859;28;20211;-61
2023/11/05 02:56:37;;;;;;;3.45;1.70;;;9.20;99.90;;;;;;5099459;28;20205;-61
2023/11/05 02:59:06;;;;;;;3.70;1.90;;;9.20;99.90;;;;;;5097309;28;20219;-61
2023/11/05 03:01:34;;;;;;;2.90;1.75;;;9.20;99.90;;;;;;5096468;28;20228;-60
2023/11/05 03:04:02;;;;;;;2.70;1.50;;;9.20;99.90;;;;;;5095379;28;20231;-60
2023/11/05 03:06:28;;;;;;;2.42;1.40;;;9.20;99.90;;;;;;5094748;28;20211;-60
2023/11/05 03:08:55;;;;;;;3.25;1.70;;;9.20;99.90;;;;;;5095094;28;20207;-61
2023/11/05 03:11:22;;;;;;;2.25;1.77;;;9.20;99.90;;;;;;5095610;28;20238;-61
2023/11/05 03:13:49;;;;;;;4.32;1.95;;;9.10;99.90;;;;;;5096303;28;20253;-61
2023/11/05 03:16:17;;;;;;;5.40;1.65;;;9.10;99.90;;;;;;5095829;28;20196;-61
2023/11/05 03:18:44;;;;;;;2.88;1.30;;;9.10;99.90;;;;;;5097551;28;20220;-61
2023/11/05 03:21:13;;;;;;;1.67;1.48;;;9.00;99.90;;;;;;5096911;28;20206;-61
2023/11/05 03:23:40;;;;;;;1.55;1.42;;;9.00;99.90;;;;;;5098482;28;20269;-60
2023/11/05 03:26:07;;;;;;;2.85;1.90;;;9.00;99.90;;;;;;5097068;28;20204;-62
2023/11/05 03:28:34;;;;;;;3.42;1.65;;;8.90;99.90;;;;;;5096505;28;20197;-61
2023/11/05 03:31:00;;;;;;;6.38;1.65;;;8.90;99.90;;;;;;5095632;28;20235;-61
2023/11/05 03:33:28;;;;;;;2.88;1.20;;;8.90;99.90;;;;;;5095070;28;20230;-61
2023/11/05 03:35:55;;;;;;;2.65;1.75;;;8.90;99.90;;;;;;5096667;28;20301;-61
2023/11/05 03:38:22;;;;;;;4.82;1.55;;;8.90;99.90;;;;;;5097345;28;20231;-61
2023/11/05 03:40:49;;;;;;;3.25;1.80;;;8.80;99.90;;;;;;5096230;28;20295;-61
2023/11/05 03:43:15;;;;;;;1.95;1.55;;;8.80;99.90;;;;;;5098474;28;20225;-62
2023/11/05 03:45:42;;;;;;;1.92;1.40;;;8.80;99.90;;;;;;5096312;28;20691;-62
2023/11/05 03:48:09;;;;;;;4.47;1.50;;;8.80;99.90;;;;;;5095579;28;20201;-61
2023/11/05 03:50:37;;;;;;;6.65;2.20;;;8.90;99.90;;;;;;5098777;28;20196;-61
2023/11/05 03:53:04;;;;;;;2.83;1.85;;;8.90;99.90;;;;;;5101161;28;20709;-61
2023/11/05 03:55:31;;;;;;;2.55;1.55;;;8.90;99.90;;;;;;5102355;28;20208;-61
2023/11/05 03:57:58;;;;;;;2.45;1.70;;;9.00;99.90;;;;;;5102058;28;20227;-62
2023/11/05 04:00:25;;;;;;;3.40;1.33;;;9.00;99.90;;;;;;5100001;28;20208;-60
2023/11/05 04:02:52;;;;;;;3.08;1.48;;;9.00;99.90;;;;;;5097629;28;20228;-62
2023/11/05 04:05:18;;;;;;;2.25;1.55;;;9.10;99.90;;;;;;5097938;28;20267;-62
2023/11/05 04:07:47;;;;;;;7.65;1.73;;;9.10;99.90;;;;;;5098526;28;20203;-60
2023/11/05 04:12:28;;;;;;;2.50;1.42;;;9.20;99.90;;;;;;5115319;27;20559;-61
2023/11/05 04:14:55;;;;;;;2.72;1.40;;;9.30;99.90;;;;;;5116631;28;20267;-61
2023/11/05 04:17:22;;;;;;;2.33;1.40;;;9.30;99.90;;;;;;5117354;28;20203;-61
2023/11/05 04:19:48;;;;;;;5.43;2.45;;;9.40;99.90;;;;;;5118822;28;20206;-62
2023/11/05 04:22:15;;;;;;;5.00;1.80;;;9.40;99.90;;;;;;5126993;28;20216;-61
2023/11/05 04:24:42;;;;;;;5.07;2.03;;;9.40;99.90;;;;;;5119000;28;20199;-61
2023/11/05 04:27:08;;;;;;;5.83;1.77;;;9.40;99.90;;;;;;5117382;28;20195;-61
2023/11/05 04:29:37;;;;;;;4.22;1.38;;;9.50;99.90;;;;;;5113032;28;20437;-61
2023/11/05 04:32:04;;;;;;;2.92;1.58;;;9.50;99.90;;;;;;5112922;28;20231;-61
2023/11/05 04:34:32;;;;;;;3.73;1.70;;;9.50;99.90;;;;;;5112311;28;20203;-60
2023/11/05 04:37:00;;;;;;;2.90;1.50;;;9.60;99.90;;;;;;5115411;28;20442;-61
2023/11/05 04:39:27;;;;;;;3.30;1.50;;;9.60;99.90;;;;;;5116064;28;20227;-61
2023/11/05 04:41:54;;;;;;;1.97;1.40;;;9.60;99.90;;;;;;5114204;28;20224;-61
2023/11/05 04:44:21;;;;;;;3.80;1.27;;;9.60;99.90;;;;;;5112032;28;20441;-62
2023/11/05 04:46:50;;;;;;;4.50;1.70;;;9.60;99.90;;;;;;5118112;28;20618;-60
2023/11/05 04:49:17;;;;;;;5.57;2.00;;;9.70;99.90;;;;;;5112833;28;20444;-61
2023/11/05 04:51:44;;;;;;;3.28;2.10;;;9.70;99.90;;;;;;5112528;28;20227;-61
2023/11/05 04:54:10;;;;;;;4.45;1.70;;;9.70;99.90;;;;;;5111899;28;20214;-61
2023/11/05 04:56:37;;;;;;;4.03;1.83;;;9.70;99.90;;;;;;5113064;28;20210;-60
2023/11/05 04:59:04;;;;;;;4.00;1.60;;;9.70;99.90;;;;;;5114480;28;20462;-60
2023/11/05 05:01:31;;;;;;;5.80;1.60;;;9.70;99.90;;;;;;5113719;28;20207;-61
2023/11/05 05:04:00;;;;;;;3.17;1.70;;;9.70;99.90;;;;;;5112976;28;20438;-61
2023/11/05 05:06:26;;;;;;;2.78;1.50;;;9.70;99.90;;;;;;5110196;28;20245;-62
2023/11/05 05:08:53;;;;;;;2.73;1.53;;;9.70;99.90;;;;;;5110774;28;20204;-61
2023/11/05 05:11:20;;;;;;;2.20;1.25;;;9.80;99.90;;;;;;5111194;28;20481;-59
2023/11/05 05:13:47;;;;;;;2.80;1.30;;;9.70;99.90;;;;;;5113961;28;20196;-61
2023/11/05 05:16:17;;;;;;;1.75;1.38;;;9.70;99.90;;;;;;5112040;28;20433;-61
2023/11/05 05:18:44;;;;;;;2.30;1.50;;;9.70;99.90;;;;;;5110916;28;20184;-61
2023/11/05 05:21:14;;;;;;;2.83;1.42;;;9.80;99.90;;;;;;5111849;28;20960;-61
2023/11/05 05:23:41;;;;;;;3.85;1.50;;;9.80;99.90;;;;;;5098568;28;20674;-60
2023/11/05 05:26:09;;;;;;;2.47;1.55;;;9.70;99.90;;;;;;5097653;28;20211;-62
2023/11/05 05:28:36;;;;;;;6.00;1.58;;;9.70;99.90;;;;;;5098077;28;20211;-61
2023/11/05 05:31:02;;;;;;;4.38;1.60;;;9.70;99.90;;;;;;5098545;28;20224;-61
2023/11/05 05:33:29;;;;;;;2.80;1.27;;;9.70;99.90;;;;;;5098228;28;20216;-62
2023/11/05 05:35:56;;;;;;;3.83;1.42;;;9.60;99.90;;;;;;5096927;28;20488;-63
2023/11/05 05:38:24;;;;;;;3.67;1.40;;;9.60;99.90;;;;;;5097112;28;20226;-62
2023/11/05 05:40:51;;;;;;;2.92;1.50;;;9.60;99.90;;;;;;5098131;28;20487;-62
2023/11/05 05:43:18;;;;;;;5.85;1.85;;;9.60;99.90;;;;;;5098487;28;20220;-61
2023/11/05 05:45:45;;;;;;;2.53;1.60;;;9.60;99.90;;;;;;5098364;28;20202;-61
2023/11/05 05:48:11;;;;;;;4.28;1.88;;;9.60;99.90;;;;;;5097780;28;20200;-62
2023/11/05 05:50:39;;;;;;;7.53;2.53;;;9.60;99.90;;;;;;5098372;28;20211;-62
2023/11/05 05:53:06;;;;;;;2.90;1.80;;;9.50;99.90;;;;;;5098898;28;20705;-63
2023/11/05 05:55:34;;;;;;;5.53;1.85;;;9.50;99.90;;;;;;5099487;28;20295;-62
2023/11/05 05:58:02;;;;;;;2.60;2.10;;;9.50;99.90;;;;;;5098268;28;20204;-62
2023/11/05 06:00:29;;;;;;;4.25;1.65;;;9.50;99.90;;;;;;5100736;28;20229;-62
2023/11/05 06:02:56;;;;;;;2.80;1.90;;;9.50;99.90;;;;;;5099642;28;20221;-62
2023/11/05 06:05:23;;;;;;;2.27;1.60;;;9.50;99.90;;;;;;5099965;28;20460;-61
2023/11/05 06:07:49;;;;;;;2.70;1.90;;;9.50;99.90;;;;;;5100910;28;20453;-62
2023/11/05 06:10:16;;;;;;;4.00;1.80;;;9.50;99.90;;;;;;5101143;28;20442;-61
2023/11/05 06:12:44;;;;;;;3.25;1.55;;;9.50;99.90;;;;;;5101039;28;20502;-62
2023/11/05 06:15:11;;;;;;;4.57;1.73;;;9.50;99.90;;;;;;5100833;28;20204;-61
2023/11/05 06:17:38;;;;;;;3.75;2.28;;;9.50;99.90;;;;;;5100716;28;20205;-62
2023/11/05 06:20:06;;;;;;;2.10;1.50;;;9.50;99.90;;;;;;5101616;28;20204;-61
2023/11/05 06:22:33;;;;;;;4.68;1.80;;;9.50;99.90;;;;;;5107158;28;20221;-61
2023/11/05 06:25:00;;;;;;;2.20;1.42;;;9.50;99.90;;;;;;5105511;28;20220;-61
2023/11/05 06:27:27;;;;;;;5.80;1.50;;;9.50;99.90;;;;;;5104810;28;20207;-62
2023/11/05 06:29:56;;;;;;;3.50;1.60;;;9.50;99.90;;;;;;5105834;28;20438;-62
2023/11/05 06:32:23;;;;;;;6.10;1.70;;;9.50;99.90;;;;;;5099619;28;20230;-62
2023/11/05 06:34:50;;;;;;;2.53;1.80;;;9.50;99.90;;;;;;5098670;28;20574;-65
2023/11/05 06:37:16;;;;;;;3.22;1.45;;;9.50;99.90;;;;;;5099371;28;20449;-61
2023/11/05 06:39:43;;;;;;;3.47;1.58;;;9.50;99.90;;;;;;5099803;28;20261;-62
2023/11/05 06:42:10;;;;;;;3.00;1.75;;;9.50;99.90;;;;;;5099756;28;20220;-61
2023/11/05 06:44:37;;;;;;;4.47;1.73;;;9.50;99.90;;;;;;5102670;28;20201;-62
2023/11/05 06:47:05;;;;;;;3.08;1.95;;;9.50;99.90;;;;;;5099195;28;20530;-62
2023/11/05 06:49:32;;;;;;;4.47;1.90;;;9.50;99.90;;;;;;5099596;28;20200;-62
2023/11/05 06:51:59;;;;;;;6.93;1.67;;;9.50;99.90;;;;;;5102336;28;20478;-61
2023/11/05 06:54:27;;;;;;;1.90;1.57;;;9.60;99.90;;;;;;5102987;28;20260;-62
2023/11/05 06:56:54;;;;;;;3.97;1.80;;;9.60;99.90;;;;;;5099817;28;20492;-61
2023/11/05 06:59:21;;;;;;;3.03;1.70;;;9.60;99.90;;;;;;5101502;28;20448;-63
2023/11/05 07:01:48;;;;;;;2.73;1.43;;;9.60;99.90;;;;;;5100613;28;20477;-61
2023/11/05 07:04:17;;;;;;;4.88;2.00;;;9.60;99.90;;;;;;5101142;28;20455;-61
2023/11/05 07:06:45;;;;;;;2.25;1.35;;;9.60;99.90;;;;;;5100172;28;20203;-61
2023/11/05 07:09:13;;;;;;;3.53;1.80;;;9.70;99.90;;;;;;5100671;28;20749;-62
2023/11/05 07:11:40;;;;;;;3.47;1.73;;;9.70;99.90;;;;;;5099511;28;20492;-62
2023/11/05 07:14:07;;;;;;;3.10;1.57;;;9.70;99.90;;;;;;5099804;28;20669;-62
2023/11/05 07:16:34;;;;;;;5.90;1.70;;;9.70;99.90;;;;;;5099268;28;20435;-62
2023/11/05 07:19:00;;;;;;;5.83;1.50;;;9.70;99.90;;;;;;5100700;28;20438;-64
2023/11/05 07:21:29;;;;;;;2.30;1.57;;;9.70;99.90;;;;;;5102244;28;20477;-62
2023/11/05 07:23:55;;;;;;;7.30;1.33;;;9.70;99.90;;;;;;5103245;28;20806;-62
2023/11/05 07:26:22;;;;;;;5.37;1.90;;;9.70;99.90;;;;;;5098368;28;20457;-64
2023/11/05 07:28:49;;;;;;;3.13;1.90;;;9.80;99.90;;;;;;5101943;28;20438;-61
2023/11/05 07:31:16;;;;;;;4.93;1.57;;;9.80;99.90;;;;;;5102746;28;20445;-63
2023/11/05 07:33:43;;;;;;;2.67;1.50;;;9.90;99.90;;;;;;5103587;28;20468;-62
2023/11/05 07:36:10;;;;;;;4.33;1.47;;;9.90;99.90;;;;;;5098997;28;20435;-62
2023/11/05 07:38:39;;;;;;;1.37;1.20;;;10.00;99.90;;;;;;5099093;28;21027;-62
2023/11/05 07:41:07;;;;;;;2.97;2.10;;;10.00;99.90;;;;;;5102032;28;20449;-63
2023/11/05 07:43:33;;;;;;;1.30;1.03;;;10.10;99.90;;;;;;5099290;28;20458;-61
2023/11/05 07:46:01;;;;;;;2.67;0.93;;;10.20;99.90;;;;;;5101842;28;21007;-63
2023/11/05 07:48:27;;;;;;;1.40;1.00;;;10.20;99.90;;;;;;5098847;28;20457;-61
2023/11/05 07:50:54;;;;;;;2.77;1.27;;;10.30;99.90;;;;;;5098568;28;20445;-61
2023/11/05 07:53:21;;;;;;;2.37;1.03;;;10.40;99.90;;;;;;5098794;28;20505;-62
2023/11/05 07:55:49;;;;;;;4.23;1.10;;;10.40;99.90;;;;;;5098280;28;20453;-62
2023/11/05 07:58:16;;;;;;;5.90;1.10;;;10.50;99.90;;;;;;5098335;28;20442;-62
2023/11/05 08:00:46;;;;;;;1.40;1.00;;;10.50;99.90;;;;;;5099351;28;20478;-62
2023/11/05 08:03:13;;;;;;;2.30;1.27;;;10.60;99.90;;;;;;5098363;28;20469;-61
2023/11/05 08:05:40;;;;;;;3.00;1.23;;;10.60;99.90;;;;;;5098914;28;20529;-62
2023/11/05 08:08:07;;;;;;;2.30;1.13;;;10.60;99.90;;;;;;5099747;28;20447;-62
2023/11/05 08:10:34;;;;;;;1.97;1.20;;;10.70;99.90;;;;;;5099446;28;20481;-61
2023/11/05 08:13:02;;;;;;;4.17;1.30;;;10.70;99.90;;;;;;5097554;28;20987;-61
2023/11/05 08:15:28;;;;;;;3.23;1.07;;;10.70;99.90;;;;;;5096445;28;20442;-61
2023/11/05 08:17:55;;;;;;;2.60;1.40;;;10.60;99.90;;;;;;5096465;28;20880;-62
2023/11/05 08:20:22;;;;;;;2.90;1.17;;;10.60;99.90;;;;;;5101447;28;20446;-61
2023/11/05 08:22:49;;;;;;;2.47;1.20;;;10.60;99.90;;;;;;5101416;28;20464;-61
2023/11/05 08:25:21;;;;;;;1.90;1.03;;;10.60;99.90;;;;;;5101866;28;20434;-62
2023/11/05 08:27:48;;;;;;;1.03;0.93;;;10.70;99.90;;;;;;5106075;28;20430;-62
2023/11/05 08:30:18;;;;;;;4.97;1.20;;;10.70;99.90;;;;;;5103508;28;20986;-62
2023/11/05 08:32:45;;;;;;;1.07;0.93;;;10.70;99.90;;;;;;5106352;28;20488;-62
2023/11/05 08:35:12;;;;;;;2.00;1.33;;;10.80;99.90;;;;;;5108293;28;20442;-62
2023/11/05 08:37:40;;;;;;;2.40;1.43;;;10.90;99.90;;;;;;5106258;28;20446;-62
2023/11/05 08:40:09;;;;;;;3.10;1.40;;;11.00;99.90;;;;;;5094398;28;20519;-62
2023/11/05 08:42:36;;;;;;;5.67;1.87;;;11.10;99.90;;;;;;5093491;28;20858;-62
2023/11/05 08:45:03;;;;;;;1.57;1.00;;;11.20;99.90;;;;;;5093771;28;20453;-62
2023/11/05 08:47:31;;;;;;;1.57;0.80;;;11.30;99.90;;;;;;5095188;28;20442;-62
2023/11/05 08:49:59;;;;;;;2.10;1.03;;;11.40;99.90;;;;;;5095998;28;20438;-62
2023/11/05 08:52:26;;;;;;;2.97;1.20;;;11.50;99.90;;;;;;5094020;28;20484;-63
2023/11/05 08:54:52;;;;;;;1.93;0.90;;;11.50;99.90;;;;;;5093806;28;20470;-62
2023/11/05 08:57:19;;;;;;;1.70;0.80;;;11.50;99.90;;;;;;5094202;28;20811;-61
2023/11/05 08:59:46;;;;;;;2.30;0.90;;;11.50;99.90;;;;;;5097365;28;20438;-62
2023/11/05 09:02:13;;;;;;;4.83;1.13;;;11.50;99.90;;;;;;5098207;28;20466;-63
2023/11/05 09:04:41;;;;;;;2.07;1.00;;;11.50;99.90;;;;;;5097430;28;20434;-62
2023/11/05 09:07:10;;;;;;;4.43;1.47;;;11.50;99.90;;;;;;5097368;28;20440;-62
2023/11/05 09:09:37;;;;;;;2.17;1.33;;;11.50;99.90;;;;;;5096867;28;21007;-61
2023/11/05 09:12:08;;;;;;;1.63;1.20;;;11.60;99.90;;;;;;5096995;28;20861;-62
2023/11/05 09:14:34;;;;;;;2.20;1.10;;;11.60;99.90;;;;;;5097754;28;20435;-61
2023/11/05 09:17:01;;;;;;;1.50;1.10;;;11.70;99.90;;;;;;5097501;28;20857;-61
2023/11/05 09:19:28;;;;;;;4.50;1.83;;;11.70;99.90;;;;;;5097798;28;20438;-62
2023/11/05 09:21:56;;;;;;;3.47;1.47;;;11.80;99.90;;;;;;5096627;28;20964;-61
2023/11/05 09:24:23;;;;;;;3.37;1.60;;;11.80;99.90;;;;;;5097179;28;20449;-62
2023/11/05 09:26:50;;;;;;;3.07;1.77;;;11.90;99.90;;;;;;5096874;28;20435;-61
2023/11/05 09:29:18;;;;;;;2.40;1.60;;;11.90;99.90;;;;;;5096560;28;20824;-62
2023/11/05 09:31:47;;;;;;;2.90;1.80;;;12.10;99.90;;;;;;5096721;28;20486;-62
2023/11/05 09:34:14;;;;;;;1.93;1.17;;;12.10;99.90;;;;;;5096950;28;20449;-61
2023/11/05 09:36:41;;;;;;;2.10;1.27;;;12.20;99.90;;;;;;5097949;28;20445;-61
2023/11/05 09:39:10;;;;;;;2.97;1.63;;;12.20;99.90;;;;;;5097952;28;20445;-62
2023/11/05 09:41:38;;;;;;;1.93;1.10;;;12.20;99.90;;;;;;5097084;28;21051;-62
2023/11/05 09:44:05;;;;;;;1.63;1.53;;;12.20;99.90;;;;;;5098146;28;20442;-62
2023/11/05 09:46:32;;;;;;;2.73;1.17;;;12.30;99.90;;;;;;5096950;28;20518;-62
2023/11/05 09:48:59;;;;;;;1.80;1.50;;;12.30;99.90;;;;;;5096712;28;20508;-62
2023/11/05 09:51:27;;;;;;;1.17;0.97;;;12.30;99.90;;;;;;5096150;28;20457;-62
2023/11/05 09:53:54;;;;;;;2.00;1.07;;;12.40;99.90;;;;;;5096190;28;20481;-62
2023/11/05 09:56:24;;;;;;;3.20;0.80;;;12.30;99.90;;;;;;5096444;28;20443;-61
2023/11/05 09:58:50;;;;;;;1.70;1.10;;;12.30;99.90;;;;;;5097074;28;20446;-62
2023/11/05 10:01:17;;;;;;;1.83;0.80;;;12.30;99.90;;;;;;5096467;28;20453;-62
2023/11/05 10:03:44;;;;;;;5.50;0.80;;;12.20;99.90;;;;;;5096757;28;20426;-61
2023/11/05 10:06:16;;;;;;;1.87;0.70;;;12.20;99.90;;;;;;5096484;28;20456;-63
2023/11/05 10:08:43;;;;;;;0.93;0.63;;;12.30;99.90;;;;;;5096284;28;20427;-62
2023/11/05 10:11:10;;;;;;;1.50;0.97;;;12.50;99.90;;;;;;5096438;28;20483;-62
2023/11/05 10:13:38;;;;;;;1.50;1.00;;;12.80;99.90;;;;;;5098670;28;20560;-61
2023/11/05 10:16:09;;;;;;;2.10;0.70;;;13.00;99.90;;;;;;5097927;28;20449;-62
2023/11/05 10:18:36;;;;;;;0.90;0.63;;;13.20;99.90;;;;;;5098337;28;20427;-62
2023/11/05 10:21:04;;;;;;;0.87;0.70;;;13.20;99.90;;;;;;5099528;28;20533;-62
2023/11/05 10:23:32;;;;;;;1.13;0.70;;;13.20;99.90;;;;;;5100654;28;20559;-62
2023/11/05 10:25:59;;;;;;;1.67;0.50;;;13.20;99.90;;;;;;5102020;28;20462;-63
2023/11/05 10:28:27;;;;;;;0.70;0.50;;;13.10;99.90;;;;;;5099223;28;20439;-62
2023/11/05 10:30:56;;;;;;;1.20;0.70;;;13.00;99.90;;;;;;5102198;28;20446;-64
2023/11/05 10:33:22;;;;;;;2.07;0.70;;;13.00;99.90;;;;;;5101477;28;20482;-62
2023/11/05 10:35:49;;;;;;;0.90;0.67;;;13.00;99.90;;;;;;5098726;28;20449;-62
2023/11/05 10:38:18;;;;;;;0.80;0.50;;;13.00;99.90;;;;;;5097147;28;20450;-61
2023/11/05 10:40:45;;;;;;;1.37;0.90;;;12.90;99.90;;;;;;5102239;28;20449;-62
2023/11/05 10:43:12;;;;;;;1.47;0.87;;;13.00;99.90;;;;;;5098654;28;20457;-61
2023/11/05 10:45:39;;;;;;;0.90;0.70;;;13.10;99.90;;;;;;5101154;28;20453;-62
2023/11/05 10:48:09;;;;;;;1.37;0.80;;;13.20;99.90;;;;;;5099837;28;20453;-61
2023/11/05 10:50:38;;;;;;;0.90;0.70;;;13.20;99.90;;;;;;5103471;28;20850;-62
2023/11/05 10:53:07;;;;;;;2.20;1.07;;;13.20;99.90;;;;;;5104782;28;20478;-62
2023/11/05 10:55:35;;;;;;;1.40;1.23;;;13.20;99.90;;;;;;5103919;28;20457;-61
2023/11/05 10:58:04;;;;;;;0.73;0.50;;;13.20;99.90;;;;;;5102583;28;20446;-62
2023/11/05 11:00:50;;;;;;;2.50;0.70;;;13.20;99.90;;;;;;5100897;28;20468;-62
2023/11/05 11:03:20;;;;;;;1.30;0.60;;;13.20;99.90;;;;;;5103186;28;20468;-63
2023/11/05 11:06:00;;;;;;;1.50;0.90;;;13.30;99.90;;;;;;5101975;28;20798;-61
2023/11/05 11:08:29;;;;;;;1.63;0.90;;;13.30;99.90;;;;;;5097525;28;20934;-62
2023/11/05 11:11:23;;;;;;;0.83;0.63;;;13.30;99.90;;;;;;5097614;28;21026;-62
2023/11/05 11:13:55;;;;;;;1.40;1.30;;;13.30;99.90;;;;;;5097635;28;20462;-61
2023/11/05 11:16:27;;;;;;;1.50;0.67;;;13.40;99.90;;;;;;5097547;28;20472;-61
2023/11/05 11:18:56;;;;;;;1.07;0.63;;;13.40;99.90;;;;;;5098060;28;20979;-61
2023/11/05 11:21:24;;;;;;;0.80;0.57;;;13.30;99.90;;;;;;5097475;28;20442;-62
2023/11/05 11:23:52;;;;;;;1.47;0.60;;;13.30;99.90;;;;;;5096708;28;20457;-61
2023/11/05 11:26:20;;;;;;;1.27;0.67;;;13.30;99.90;;;;;;5100781;28;20871;-61
2023/11/05 11:28:53;;;;;;;0.63;0.40;;;13.40;99.90;;;;;;5095615;28;20442;-62
2023/11/05 11:31:21;;;;;;;1.27;0.73;;;13.40;99.90;;;;;;5095008;28;20431;-61
2023/11/05 11:33:49;;;;;;;1.50;1.00;;;13.50;99.90;;;;;;5095251;28;20474;-61
2023/11/05 11:36:17;;;;;;;0.70;0.60;;;13.50;99.90;;;;;;5095796;28;20442;-61
2023/11/05 11:38:44;;;;;;;1.50;0.87;;;13.60;99.90;;;;;;5096302;28;20457;-62
2023/11/05 11:41:12;;;;;;;1.10;0.60;;;13.60;99.90;;;;;;5096132;28;20442;-61
2023/11/05 11:43:40;;;;;;;0.63;0.53;;;13.70;99.90;;;;;;5099211;28;20513;-60
2023/11/05 11:46:07;;;;;;;0.60;0.50;;;13.80;99.90;;;;;;5102234;28;20495;-62
2023/11/05 11:48:34;;;;;;;2.10;0.67;;;13.90;99.90;;;;;;5104427;28;20931;-61
2023/11/05 11:51:06;;;;;;;1.80;0.80;;;14.00;99.90;;;;;;5106208;28;20442;-61
2023/11/05 11:53:37;;;;;;;1.40;0.70;;;14.00;99.90;;;;;;5105946;28;20481;-61
2023/11/05 11:56:05;;;;;;;1.53;0.80;;;13.90;99.90;;;;;;5106922;28;20490;-61
2023/11/05 11:58:38;;;;;;;1.93;0.80;;;13.90;99.90;;;;;;5106514;28;20443;-61
2023/11/05 12:01:09;;;;;;;1.07;0.80;;;13.80;99.90;;;;;;5103897;28;20429;-61
2023/11/05 12:03:36;;;;;;;1.10;0.80;;;13.70;99.90;;;;;;5101784;28;20446;-62
2023/11/05 12:06:03;;;;;;;1.97;1.57;;;13.60;99.90;;;;;;5098771;28;20439;-61
2023/11/05 12:08:42;;;;;;;1.00;0.90;;;13.60;99.90;;;;;;5102559;28;20452;-62
2023/11/05 12:11:11;;;;;;;2.90;1.57;;;13.50;99.90;;;;;;5105049;28;20524;-62
2023/11/05 12:13:39;;;;;;;3.70;2.20;;;13.50;99.90;;;;;;5098981;28;20489;-61
2023/11/05 12:16:09;;;;;;;2.50;1.70;;;13.40;99.90;;;;;;5100276;28;20430;-63
2023/11/05 12:18:36;;;;;;;1.80;1.30;;;13.30;99.90;;;;;;5097905;28;20442;-62
2023/11/05 12:21:07;;;;;;;2.00;1.50;;;13.30;99.90;;;;;;5099354;28;20440;-63
2023/11/05 12:23:34;;;;;;;1.33;1.00;;;13.40;99.90;;;;;;5096852;28;20455;-61
2023/11/05 12:26:03;;;;;;;1.93;0.97;;;13.40;99.90;;;;;;5095225;28;20530;-62
2023/11/05 12:28:30;;;;;;;2.87;1.20;;;13.50;99.90;;;;;;5095627;28;20446;-61
2023/11/05 12:30:58;;;;;;;1.73;1.20;;;13.60;99.90;;;;;;5094718;28;20884;-61
2023/11/05 12:33:25;;;;;;;1.70;0.97;;;13.60;99.90;;;;;;5096891;28;20484;-60
2023/11/05 12:35:53;;;;;;;2.47;1.13;;;13.70;99.90;;;;;;5098728;28;20438;-62
2023/11/05 12:38:20;;;;;;;15.20;8.77;;;13.70;99.90;;;;;;5100251;28;20447;-61
2023/11/05 12:40:47;;;;;;;18.70;11.70;;;13.70;99.90;;;;;;5099118;28;20927;-62
2023/11/05 12:43:15;;;;;;;18.00;10.03;;;13.70;99.90;;;;;;5100521;28;20458;-61
2023/11/05 12:45:41;;;;;;;24.57;15.30;;;13.70;99.90;;;;;;5099761;28;20499;-61
2023/11/05 12:48:08;;;;;;;17.33;9.53;;;13.70;99.90;;;;;;5098930;28;20442;-60
2023/11/05 12:50:35;;;;;;;16.70;7.13;;;13.70;99.90;;;;;;5098780;28;20442;-61
2023/11/05 12:53:02;;;;;;;8.07;4.20;;;13.70;99.90;;;;;;5098539;28;20568;-61
2023/11/05 12:55:30;;;;;;;3.80;2.77;;;13.80;99.90;;;;;;5099088;28;20443;-61
2023/11/05 12:57:57;;;;;;;4.60;2.83;;;13.70;99.90;;;;;;5100502;28;20529;-62